SCIP

Mataveri Airport

Airport
ICAO code
SCIP
IATA Code
IPC
Summary
ICAO Region
CARSAM
ICAO Territory
Location

Hanga Roa, Valparaiso

Serving
Easter Island
Elevation
227 ft
Coordinates
27° 9' 53" S , 109° 25' 19" W
KCC
Metar
Observation
SCIP 050300Z 14003KT 9999 BKN036 23/20 Q1017 NOSIG
Station
Isla De Pascua
Date/Time
2023-02-05 03:00:00
Wind direction
140°
Wind speed
03 kts
Lowest cloud amount
broken clouds
Temperature
23°C
Dew point
20°C
Humidity
83%
QNH
1017 hPa
Weather condition
n/a

International airport serving Easter Island.

Climatology

Tropical rainforest climate (Köppen climate classification Af)

Runways

Designator Length Width Surface Rops
10/28 3300 45 ASP Yes/Yes

Airport map

Aerial View

SKYbrary Partners:

Safety knowledge contributed by: